Air Quality Table

TIMESTAMP NO2 SO2 O3 PM10 PM2.5 TEMP HUM AIRPRES WS WD NO
2022-10-04 16:00 0.69 µg/m3 -0.06 µg/m3 78.6 µg/m3 14.11 µg/m3 5.34 µg/m3 23.64 °C 74.03 % 1,012.19 mbar 5.24 m/s 117.15 Deg 0.83 µg/m3
2022-10-04 15:00 0.94 µg/m3 -0.04 µg/m3 78.97 µg/m3 8.54 µg/m3 4.89 µg/m3 24.13 °C 71.04 % 1,012.07 mbar 5.72 m/s 123.62 Deg 0.85 µg/m3
2022-10-04 14:00 1.47 µg/m3 -0.01 µg/m3 78.93 µg/m3 8.18 µg/m3 3.72 µg/m3 24.29 °C 68.59 % 1,012.07 mbar 5.94 m/s 146.95 Deg 1.05 µg/m3
2022-10-04 13:00 1.03 µg/m3 -0.01 µg/m3 77.22 µg/m3 8.28 µg/m3 4.56 µg/m3 24.64 °C 70.24 % 1,012.21 mbar 6.32 m/s 152.87 Deg 0.94 µg/m3
2022-10-04 12:00 1.33 µg/m3 -0.02 µg/m3 73.28 µg/m3 8.98 µg/m3 6.23 µg/m3 24.56 °C 72.36 % 1,012.13 mbar 5.78 m/s 162.72 Deg 0.98 µg/m3
2022-10-04 11:00 2.27 µg/m3 -0.01 µg/m3 73.18 µg/m3 13.28 µg/m3 5.64 µg/m3 24.97 °C 68.9 % 1,011.76 mbar 5.54 m/s 127.93 Deg 1.26 µg/m3
2022-10-04 10:00 1.2 µg/m3 -0.02 µg/m3 73.62 µg/m3 17.28 µg/m3 7.79 µg/m3 24.79 °C 68.89 % 1,011.31 mbar 5.38 m/s 125.95 Deg 0.97 µg/m3
2022-10-04 09:00 3.58 µg/m3 0.03 µg/m3 68.9 µg/m3 24.1 µg/m3 9.8 µg/m3 24.43 °C 74.6 % 1,010.82 mbar 4.15 m/s 140.35 Deg 1.43 µg/m3
2022-10-04 08:00 6.13 µg/m3 0.04 µg/m3 64.82 µg/m3 20.19 µg/m3 6.43 µg/m3 24.2 °C 77.62 % 1,010.29 mbar 2.28 m/s 260.87 Deg 1.51 µg/m3
2022-10-04 07:00 14.64 µg/m3 0.02 µg/m3 55.59 µg/m3 14.04 µg/m3 9.97 µg/m3 23.27 °C 79.66 % 1,009.80 mbar 1.59 m/s 321.03 Deg 1.92 µg/m3
2022-10-04 06:00 10.11 µg/m3 0.02 µg/m3 56.79 µg/m3 16.17 µg/m3 8.79 µg/m3 22.66 °C 81.64 % 1,009.29 mbar 1.55 m/s 290.72 Deg 1.1 µg/m3
2022-10-04 05:00 7.5 µg/m3 0.01 µg/m3 55.84 µg/m3 13.98 µg/m3 5.9 µg/m3 22.55 °C 88.74 % 1,008.97 mbar 1.51 m/s 271.68 Deg 0.88 µg/m3
2022-10-04 04:00 2.75 µg/m3 0.06 µg/m3 69.59 µg/m3 16.61 µg/m3 5.76 µg/m3 22.58 °C 92 % 1,008.66 mbar 1.93 m/s 256 Deg 0.8 µg/m3
2022-10-04 03:00 3.03 µg/m3 0.02 µg/m3 64.13 µg/m3 13.06 µg/m3 6.96 µg/m3 22.81 °C 89.48 % 1,008.73 mbar 1.87 m/s 153.37 Deg 0.88 µg/m3
2022-10-04 02:00 8.08 µg/m3 0.03 µg/m3 51.34 µg/m3 15.4 µg/m3 7.4 µg/m3 22.68 °C 85.86 % 1,008.81 mbar 0.89 m/s 218.8 Deg 0.85 µg/m3
2022-10-04 01:00 5.28 µg/m3 0.04 µg/m3 56.19 µg/m3 21.47 µg/m3 8.22 µg/m3 22.45 °C 86.25 % 1,008.91 mbar 1.35 m/s 273.67 Deg 0.88 µg/m3
2022-10-04 00:00 10.07 µg/m3 0.02 µg/m3 47.53 µg/m3 15.53 µg/m3 9.75 µg/m3 22.34 °C 87.59 % 1,008.86 mbar 0.99 m/s 225.23 Deg 0.97 µg/m3
2022-10-03 23:00 13.77 µg/m3 0.05 µg/m3 48.65 µg/m3 19.1 µg/m3 7.05 µg/m3 22.75 °C 85.59 % 1,008.96 mbar 1.06 m/s 240.98 Deg 1 µg/m3
2022-10-03 22:00 14.85 µg/m3 0.01 µg/m3 56.4 µg/m3 24.33 µg/m3 8.52 µg/m3 23.38 °C 85.32 % 1,009.04 mbar 1.12 m/s 329.97 Deg 1.18 µg/m3
2022-10-03 21:00 16.17 µg/m3 0.02 µg/m3 57.86 µg/m3 40.5 µg/m3 9.58 µg/m3 23.51 °C 89.88 % 1,009.12 mbar 1.59 m/s 330.25 Deg 1.26 µg/m3
2022-10-03 20:00 18.29 µg/m3 0.02 µg/m3 60.17 µg/m3 31.39 µg/m3 6.04 µg/m3 23.63 °C 88.13 % 1,008.99 mbar 1.98 m/s 345.35 Deg 1.5 µg/m3
2022-10-03 19:00 15.71 µg/m3 0.03 µg/m3 64.68 µg/m3 21.26 µg/m3 6.42 µg/m3 23.72 °C 83.96 % 1,008.71 mbar 2.23 m/s 255.23 Deg 1.9 µg/m3
2022-10-03 18:00 13.06 µg/m3 0.05 µg/m3 71.41 µg/m3 18.01 µg/m3 8.08 µg/m3 24.09 °C 80.87 % 1,008.47 mbar 3.33 m/s 313.38 Deg 2.8 µg/m3
2022-10-03 17:00 11.02 µg/m3 0.05 µg/m3 72.31 µg/m3 27.35 µg/m3 9.08 µg/m3 25.15 °C 72.95 % 1,008.38 mbar 3.36 m/s 322.35 Deg 2.55 µg/m3
2022-10-03 16:00 11.26 µg/m3 0.03 µg/m3 74.35 µg/m3 26.71 µg/m3 6.72 µg/m3 26.19 °C 70.87 % 1,008.57 mbar 3.42 m/s 315.5 Deg 3.18 µg/m3
2022-10-03 15:00 13.83 µg/m3 0.08 µg/m3 74.59 µg/m3 25.58 µg/m3 5.12 µg/m3 26.7 °C 66.04 % 1,008.71 mbar 3.29 m/s 318.25 Deg 4.08 µg/m3
2022-10-03 14:00 14.55 µg/m3 0.06 µg/m3 69.3 µg/m3 14.53 µg/m3 4.63 µg/m3 27.17 °C 63.5 % 1,009.10 mbar 3.25 m/s 326.03 Deg 4.72 µg/m3
2022-10-03 13:00 11.22 µg/m3 0.07 µg/m3 71.3 µg/m3 14.12 µg/m3 5.13 µg/m3 26.3 °C 67.89 % 1,009.77 mbar 3.81 m/s 345.42 Deg 3.74 µg/m3
2022-10-03 12:00 9.64 µg/m3 0.06 µg/m3 77.16 µg/m3 18.06 µg/m3 4.4 µg/m3 25.47 °C 74.96 % 1,010.42 mbar 4.37 m/s 352.7 Deg 3.13 µg/m3
2022-10-03 11:00 10.67 µg/m3 0.05 µg/m3 75.69 µg/m3 20.91 µg/m3 5.27 µg/m3 25.27 °C 73.86 % 1,010.72 mbar 4.78 m/s 266 Deg 3.3 µg/m3
2022-10-03 10:00 12.42 µg/m3 0.1 µg/m3 70.82 µg/m3 32.57 µg/m3 6.46 µg/m3 24.99 °C 72.11 % 1,011.04 mbar 4.19 m/s 343.8 Deg 3.93 µg/m3
2022-10-03 09:00 17.68 µg/m3 0.15 µg/m3 60.46 µg/m3 30.92 µg/m3 7.87 µg/m3 24.51 °C 76.71 % 1,011.03 mbar 3.42 m/s 336.63 Deg 6.26 µg/m3
2022-10-03 08:00 30.98 µg/m3 0.22 µg/m3 37.75 µg/m3 29.36 µg/m3 9.11 µg/m3 23.57 °C 80.01 % 1,010.87 mbar 2.76 m/s 330.63 Deg 9.55 µg/m3
2022-10-03 07:00 49.67 µg/m3 0.23 µg/m3 13.29 µg/m3 13.97 µg/m3 5.74 µg/m3 22.12 °C 86.81 % 1,010.78 mbar 1.95 m/s 328.33 Deg 13.93 µg/m3
2022-10-03 06:00 39.11 µg/m3 0.13 µg/m3 18.09 µg/m3 13.36 µg/m3 7.11 µg/m3 21.54 °C 90.93 % 1,010.79 mbar 1.95 m/s 319.62 Deg 7.77 µg/m3
2022-10-03 05:00 18.58 µg/m3 0.07 µg/m3 32.04 µg/m3 22.03 µg/m3 6.9 µg/m3 21.61 °C 89.26 % 1,010.99 mbar 1.62 m/s 317.87 Deg 2.73 µg/m3
2022-10-03 04:00 6.67 µg/m3 0.16 µg/m3 46.5 µg/m3 13.88 µg/m3 7.77 µg/m3 21.71 °C 90.53 % 1,011.23 mbar 1.78 m/s 317.07 Deg 1.2 µg/m3
2022-10-03 03:00 3.48 µg/m3 0.03 µg/m3 50.59 µg/m3 13.14 µg/m3 8.54 µg/m3 21.76 °C 91.23 % 1,011.68 mbar 1.61 m/s 308.43 Deg 0.91 µg/m3
2022-10-03 02:00 6.99 µg/m3 -0.02 µg/m3 52.03 µg/m3 16.58 µg/m3 10.34 µg/m3 22.34 °C 90.18 % 1,012.14 mbar 1.77 m/s 315.23 Deg 0.95 µg/m3
2022-10-03 01:00 4.68 µg/m3 0.02 µg/m3 55.18 µg/m3 23.44 µg/m3 11.61 µg/m3 22.57 °C 91.92 % 1,012.71 mbar 1.57 m/s 320.6 Deg 0.87 µg/m3
2022-10-03 00:00 5.58 µg/m3 -0.02 µg/m3 59.03 µg/m3 34.51 µg/m3 7.12 µg/m3 22.75 °C 92.56 % 1,013.33 mbar 1.52 m/s 317.88 Deg 0.91 µg/m3
2022-10-02 23:00 11.4 µg/m3 -0 µg/m3 51.29 µg/m3 31.08 µg/m3 10.44 µg/m3 22.48 °C 91.95 % 1,013.91 mbar 1.16 m/s 299.93 Deg 1.27 µg/m3
2022-10-02 22:00 12.76 µg/m3 0 µg/m3 53.69 µg/m3 43.74 µg/m3 15.31 µg/m3 22.65 °C 88.95 % 1,014.21 mbar 1.15 m/s 301.5 Deg 1.36 µg/m3
2022-10-02 21:00 17.86 µg/m3 0.05 µg/m3 51.09 µg/m3 38.79 µg/m3 9.95 µg/m3 23.02 °C 86.13 % 1,014.32 mbar 1.32 m/s 309.97 Deg 1.71 µg/m3
2022-10-02 20:00 16.01 µg/m3 0.04 µg/m3 60.88 µg/m3 38.49 µg/m3 6.22 µg/m3 23.33 °C 82.36 % 1,014.46 mbar 1.55 m/s 321.18 Deg 1.68 µg/m3
2022-10-02 19:00 16.05 µg/m3 0.05 µg/m3 65.97 µg/m3 28.24 µg/m3 6.39 µg/m3 23.5 °C 79.32 % 1,014.42 mbar 2.21 m/s 330 Deg 2.09 µg/m3
2022-10-02 18:00 10.19 µg/m3 0.01 µg/m3 72.78 µg/m3 32.93 µg/m3 4.66 µg/m3 23.65 °C 77.65 % 1,014.41 mbar 3.24 m/s 342.32 Deg 1.66 µg/m3
2022-10-02 17:00 10.58 µg/m3 0.02 µg/m3 75.01 µg/m3 19.64 µg/m3 4.01 µg/m3 24.13 °C 74.12 % 1,014.63 mbar 4.12 m/s 351.87 Deg 1.9 µg/m3
2022-10-02 16:00 5.15 µg/m3 0.04 µg/m3 79.83 µg/m3 14.28 µg/m3 4.47 µg/m3 24.57 °C 68.07 % 1,015.07 mbar 4.48 m/s 354.72 Deg 1.63 µg/m3
2022-10-02 15:00 5.15 µg/m3 0.03 µg/m3 84.3 µg/m3 20.12 µg/m3 5.16 µg/m3 25.04 °C 64.66 % 1,015.41 mbar 4.35 m/s 346.72 Deg 1.54 µg/m3
2022-10-02 14:00 6.98 µg/m3 0.03 µg/m3 80.03 µg/m3 16.8 µg/m3 6.24 µg/m3 25.19 °C 59.6 % 1,015.91 mbar 4.59 m/s 349.87 Deg 2.13 µg/m3
2022-10-02 13:00 6.01 µg/m3 0.07 µg/m3 78.68 µg/m3 17.61 µg/m3 5.31 µg/m3 25.63 °C 56.62 % 1,016.57 mbar 2.84 m/s 329.52 Deg 2.05 µg/m3
2022-10-02 12:00 5.12 µg/m3 0.07 µg/m3 80.71 µg/m3 12.51 µg/m3 4.84 µg/m3 24.83 °C 59.33 % 1,017.18 mbar 3.51 m/s 97.18 Deg 1.7 µg/m3
2022-10-02 11:00 9.88 µg/m3 0.05 µg/m3 74.93 µg/m3 10.41 µg/m3 4.55 µg/m3 24.8 °C 53.33 % 1,017.34 mbar 3.23 m/s 178.52 Deg 3.02 µg/m3
2022-10-02 10:00 8.63 µg/m3 0.07 µg/m3 72.83 µg/m3 11.31 µg/m3 3.75 µg/m3 24.17 °C 53.19 % 1,017.22 mbar 3.54 m/s 348.2 Deg 2.91 µg/m3
2022-10-02 09:00 7.65 µg/m3 0.05 µg/m3 71.71 µg/m3 14.91 µg/m3 3.84 µg/m3 23.72 °C 54.53 % 1,017.21 mbar 3.86 m/s 261.58 Deg 2.34 µg/m3
2022-10-02 08:00 8.8 µg/m3 0.08 µg/m3 68.64 µg/m3 13.59 µg/m3 3.58 µg/m3 23.1 °C 56.46 % 1,016.82 mbar 3.57 m/s 267.35 Deg 2.11 µg/m3
2022-10-02 07:00 9.77 µg/m3 0.03 µg/m3 67.02 µg/m3 13.41 µg/m3 4.29 µg/m3 22.42 °C 58.84 % 1,016.48 mbar 3.91 m/s 262.43 Deg 1.6 µg/m3
2022-10-02 06:00 5.43 µg/m3 0.02 µg/m3 71.99 µg/m3 18.21 µg/m3 5.7 µg/m3 22.18 °C 64.34 % 1,016.42 mbar 4.32 m/s 349.13 Deg 1.11 µg/m3
2022-10-02 05:00 3.79 µg/m3 0.05 µg/m3 72.79 µg/m3 13.35 µg/m3 5.13 µg/m3 22.2 °C 62.28 % 1,016.17 mbar 4.66 m/s 349.73 Deg 0.94 µg/m3
2022-10-02 04:00 4.18 µg/m3 0.11 µg/m3 74.94 µg/m3 12.14 µg/m3 5.85 µg/m3 22.31 °C 65.96 % 1,015.87 mbar 5.91 m/s 348 Deg 0.78 µg/m3
2022-10-02 03:00 3.34 µg/m3 -0.01 µg/m3 74.27 µg/m3 10.42 µg/m3 5.44 µg/m3 22.38 °C 65.11 % 1,015.98 mbar 6.09 m/s 344.73 Deg 0.79 µg/m3
2022-10-02 02:00 4.52 µg/m3 -0.01 µg/m3 72.92 µg/m3 11.67 µg/m3 5.37 µg/m3 22.43 °C 64.42 % 1,016.12 mbar 5.89 m/s 347.75 Deg 0.79 µg/m3
2022-10-02 01:00 4.75 µg/m3 0.03 µg/m3 71.92 µg/m3 15.71 µg/m3 4.14 µg/m3 22.63 °C 63.3 % 1,016.21 mbar 4.93 m/s 343.3 Deg 1.03 µg/m3
2022-10-02 00:00 4.29 µg/m3 0.02 µg/m3 72.98 µg/m3 13.83 µg/m3 5.4 µg/m3 23.16 °C 61.49 % 1,015.94 mbar 4.76 m/s 342.53 Deg 0.88 µg/m3
2022-10-01 23:00 6.33 µg/m3 0 µg/m3 67.65 µg/m3 14.95 µg/m3 6.26 µg/m3 23.54 °C 65.86 % 1,015.45 mbar 3.79 m/s 335.15 Deg 1.17 µg/m3
2022-10-01 22:00 6.01 µg/m3 -0.01 µg/m3 66.3 µg/m3 18.75 µg/m3 5.76 µg/m3 24.07 °C 71.61 % 1,015.18 mbar 4.13 m/s 338.95 Deg 1.04 µg/m3
2022-10-01 21:00 7.62 µg/m3 0.03 µg/m3 64.33 µg/m3 13.61 µg/m3 6.3 µg/m3 24.4 °C 73.29 % 1,014.74 mbar 3.85 m/s 331.62 Deg 1.45 µg/m3
2022-10-01 20:00 8.44 µg/m3 0.05 µg/m3 66.84 µg/m3 13.42 µg/m3 4.66 µg/m3 24.79 °C 73.47 % 1,013.96 mbar 3.85 m/s 333.8 Deg 1.4 µg/m3
2022-10-01 19:00 10.05 µg/m3 0.03 µg/m3 69.73 µg/m3 13.71 µg/m3 6.43 µg/m3 25.14 °C 76.23 % 1,013.12 mbar 3.48 m/s 335.03 Deg 1.8 µg/m3
2022-10-01 18:00 12.36 µg/m3 0.04 µg/m3 73.99 µg/m3 17.07 µg/m3 7.19 µg/m3 26.04 °C 69.04 % 1,012.69 mbar 3.22 m/s 330.33 Deg 1.81 µg/m3
2022-10-01 17:00 8.33 µg/m3 0.03 µg/m3 75.76 µg/m3 26.18 µg/m3 6.96 µg/m3 26.41 °C 70.24 % 1,012.34 mbar 3.75 m/s 337.17 Deg 1.7 µg/m3
2022-10-01 16:00 8.1 µg/m3 0.01 µg/m3 73.63 µg/m3 18.52 µg/m3 4.66 µg/m3 26.72 °C 77.8 % 1,011.74 mbar 4.45 m/s 343.82 Deg 2.35 µg/m3
2022-10-01 15:00 8.23 µg/m3 0.04 µg/m3 70.8 µg/m3 16.65 µg/m3 6.43 µg/m3 27.55 °C 76.99 % 1,011.25 mbar 3.9 m/s 347.3 Deg 2.41 µg/m3
2022-10-01 14:00 9.46 µg/m3 0.03 µg/m3 68.03 µg/m3 24.6 µg/m3 7.25 µg/m3 27.5 °C 79.78 % 1,011.49 mbar 3.4 m/s 338.62 Deg 2.6 µg/m3
2022-10-01 13:00 7.53 µg/m3 0.04 µg/m3 75.79 µg/m3 42.52 µg/m3 10.89 µg/m3 26.67 °C 86.7 % 1,011.41 mbar 3.91 m/s 173.3 Deg 2.2 µg/m3
2022-10-01 12:00 5.68 µg/m3 0.03 µg/m3 74.33 µg/m3 60.02 µg/m3 14.89 µg/m3 26.42 °C 90.79 % 1,011.05 mbar 3.99 m/s 97.52 Deg 2.27 µg/m3
2022-10-01 11:00 8.38 µg/m3 0.01 µg/m3 72.15 µg/m3 61.5 µg/m3 14.94 µg/m3 26.34 °C 90.54 % 1,010.35 mbar 4.55 m/s 27.88 Deg 2.86 µg/m3
2022-10-01 10:00 6.19 µg/m3 0.03 µg/m3 70.8 µg/m3 72.49 µg/m3 20.77 µg/m3 25.99 °C 94.46 % 1,009.68 mbar 4.34 m/s 30.15 Deg 2.57 µg/m3
2022-10-01 09:00 6.87 µg/m3 0.01 µg/m3 68.17 µg/m3 63.59 µg/m3 13.84 µg/m3 25.88 °C 94.44 % 1,008.65 mbar 4.56 m/s 35.52 Deg 2.53 µg/m3
2022-10-01 08:00 9.61 µg/m3 -0 µg/m3 63.54 µg/m3 43.86 µg/m3 14.75 µg/m3 25.31 °C 97.15 % 1,007.77 mbar 3.79 m/s 35.18 Deg 2.33 µg/m3
2022-10-01 07:00 9.86 µg/m3 0.01 µg/m3 62.56 µg/m3 43.89 µg/m3 13.81 µg/m3 24.83 °C 99.9 % 1,007.03 mbar 3.83 m/s 38.42 Deg 1.63 µg/m3
2022-10-01 06:00 4.23 µg/m3 -0.03 µg/m3 68.83 µg/m3 47.82 µg/m3 17.47 µg/m3 24.74 °C 99.9 % 1,006.42 mbar 4.52 m/s 39.28 Deg 1.16 µg/m3
2022-10-01 05:00 3.79 µg/m3 -0 µg/m3 64.25 µg/m3 51.56 µg/m3 9.43 µg/m3 25.07 °C 99.9 % 1,005.87 mbar 4.31 m/s 39.35 Deg 1.12 µg/m3
2022-10-01 04:00 1.48 µg/m3 0.1 µg/m3 63.77 µg/m3 61.42 µg/m3 12.89 µg/m3 25.21 °C 99.9 % 1,005.33 mbar 2.79 m/s 35.7 Deg 0.86 µg/m3
2022-10-01 03:00 3.01 µg/m3 -0.02 µg/m3 56.51 µg/m3 63.07 µg/m3 19.27 µg/m3 25.45 °C 99.9 % 1,005.05 mbar 2.44 m/s 31.52 Deg 0.91 µg/m3
2022-10-01 02:00 1 µg/m3 -0.01 µg/m3 58.56 µg/m3 61.99 µg/m3 10.85 µg/m3 25.6 °C 99.9 % 1,004.98 mbar 1.61 m/s 179.34 Deg 0.85 µg/m3
2022-10-01 01:00 0.55 µg/m3 -0.05 µg/m3 62.16 µg/m3 49.26 µg/m3 13.84 µg/m3 25.6 °C 99.9 % 1,004.79 mbar 3.67 m/s 126.13 Deg 0.88 µg/m3
2022-10-01 00:00 0.68 µg/m3 -0.03 µg/m3 64.69 µg/m3 36.43 µg/m3 11.77 µg/m3 25.69 °C 99.96 % 1,004.60 mbar 4.99 m/s 134.65 Deg 0.86 µg/m3
2022-09-30 23:00 0.16 µg/m3 -0.01 µg/m3 66.02 µg/m3 37.71 µg/m3 10.29 µg/m3 25.71 °C 99.21 % 1,004.44 mbar 6.42 m/s 139.88 Deg 0.85 µg/m3
2022-09-30 22:00 0.12 µg/m3 -0.01 µg/m3 66.21 µg/m3 45.63 µg/m3 9.22 µg/m3 25.73 °C 97.99 % 1,003.99 mbar 6.94 m/s 138.55 Deg 0.85 µg/m3
2022-09-30 21:00 1.53 µg/m3 -0.05 µg/m3 63.66 µg/m3 32.84 µg/m3 8.6 µg/m3 25.63 °C 98.79 % 1,003.80 mbar 7.79 m/s 138.95 Deg 0.9 µg/m3
2022-09-30 20:00 0.49 µg/m3 -0.01 µg/m3 60.22 µg/m3 26.78 µg/m3 9.89 µg/m3 25.57 °C 98.81 % 1,002.87 mbar 8.38 m/s 128.02 Deg 0.87 µg/m3
2022-09-30 19:00 1.09 µg/m3 -0 µg/m3 56.98 µg/m3 35.93 µg/m3 16.34 µg/m3 25.44 °C 99.9 % 1,002.73 mbar 8.4 m/s 124.23 Deg 0.95 µg/m3
2022-09-30 18:00 1.48 µg/m3 0.02 µg/m3 58.58 µg/m3 35.85 µg/m3 8.99 µg/m3 25.63 °C 99.46 % 1,003.29 mbar 7.46 m/s 129.7 Deg 1.29 µg/m3
2022-09-30 17:00 1.29 µg/m3 -0 µg/m3 60.89 µg/m3 31.67 µg/m3 12.01 µg/m3 25.97 °C 96.81 % 1,003.83 mbar 5.45 m/s 156.38 Deg 0.97 µg/m3
2022-09-30 16:00 1.08 µg/m3 0.02 µg/m3 64.36 µg/m3 44.38 µg/m3 15.77 µg/m3 26.34 °C 94.65 % 1,004.23 mbar 4.89 m/s 129.35 Deg 1 µg/m3
2022-09-30 15:00 1.88 µg/m3 -0.03 µg/m3 64.24 µg/m3 39.33 µg/m3 9.96 µg/m3 26.34 °C 95.58 % 1,003.22 mbar 6.52 m/s 127 Deg 1.06 µg/m3
2022-09-30 14:00 1.15 µg/m3 -0 µg/m3 68.12 µg/m3 21.58 µg/m3 16.2 µg/m3 26.44 °C 94.61 % 1,004.12 mbar 5.88 m/s 138.65 Deg 0.96 µg/m3
2022-09-30 13:00 1.44 µg/m3 -0 µg/m3 73.15 µg/m3 20.66 µg/m3 11.62 µg/m3 27.38 °C 86.81 % 1,004.02 mbar 6.72 m/s 135.87 Deg 1.09 µg/m3
2022-09-30 12:00 1.65 µg/m3 -0 µg/m3 74.81 µg/m3 32.75 µg/m3 7.22 µg/m3 27.06 °C 87.9 % 1,004.11 mbar 7.25 m/s 143.47 Deg 1.11 µg/m3
2022-09-30 11:00 1.14 µg/m3 -0.01 µg/m3 76.52 µg/m3 27.76 µg/m3 8.52 µg/m3 26.72 °C 88.34 % 1,004.28 mbar 7.56 m/s 141.7 Deg 1.03 µg/m3
2022-09-30 10:00 1.34 µg/m3 -0.02 µg/m3 72.75 µg/m3 28.08 µg/m3 8.58 µg/m3 26.44 °C 88.02 % 1,004.25 mbar 7.27 m/s 141.68 Deg 1.08 µg/m3
2022-09-30 09:00 3.39 µg/m3 0.01 µg/m3 70.17 µg/m3 23.92 µg/m3 11.74 µg/m3 26.26 °C 86.63 % 1,003.50 mbar 7.14 m/s 141 Deg 1.33 µg/m3
2022-09-30 08:00 2.54 µg/m3 -0.02 µg/m3 70.5 µg/m3 21.01 µg/m3 7.66 µg/m3 25.8 °C 86.77 % 1,003.54 mbar 6.05 m/s 144.23 Deg 1.01 µg/m3
2022-09-30 07:00 5.95 µg/m3 -0 µg/m3 65.99 µg/m3 27.01 µg/m3 8.42 µg/m3 25.35 °C 88.39 % 1,003.13 mbar 5.57 m/s 142.67 Deg 1.1 µg/m3
2022-09-30 06:00 5.78 µg/m3 -0 µg/m3 66.29 µg/m3 13.36 µg/m3 11.34 µg/m3 25.1 °C 89.77 % 1,002.77 mbar 5.05 m/s 142.52 Deg 1 µg/m3
2022-09-30 05:00 4.38 µg/m3 0.01 µg/m3 67.79 µg/m3 10.21 µg/m3 6.34 µg/m3 25.05 °C 88.93 % 1,002.49 mbar 4.75 m/s 150.52 Deg 0.91 µg/m3
2022-09-30 04:00 1.71 µg/m3 0.13 µg/m3 68.56 µg/m3 10.21 µg/m3 6.03 µg/m3 24.92 °C 86.84 % 1,002.21 mbar 4.27 m/s 149.05 Deg 0.85 µg/m3
2022-09-30 03:00 1.57 µg/m3 0.01 µg/m3 68.75 µg/m3 9.31 µg/m3 8.43 µg/m3 24.93 °C 86.27 % 1,002.57 mbar 4.39 m/s 149.18 Deg 0.83 µg/m3
2022-09-30 02:00 2.92 µg/m3 0.02 µg/m3 70.94 µg/m3 8.47 µg/m3 6.48 µg/m3 25.01 °C 79.91 % 1,003.00 mbar 3.54 m/s 169.53 Deg 0.86 µg/m3
2022-09-30 01:00 2.67 µg/m3 0 µg/m3 72.01 µg/m3 10.46 µg/m3 7 µg/m3 24.87 °C 75.79 % 1,003.09 mbar 3.31 m/s 169.78 Deg 0.88 µg/m3
2022-09-30 00:00 3.18 µg/m3 0.01 µg/m3 72.18 µg/m3 12.35 µg/m3 7.74 µg/m3 24.86 °C 73.96 % 1,003.32 mbar 3.83 m/s 171.15 Deg 0.88 µg/m3
2022-09-29 23:00 4.14 µg/m3 0.02 µg/m3 71.16 µg/m3 18.54 µg/m3 7.71 µg/m3 24.8 °C 76.65 % 1,003.66 mbar 4.07 m/s 173.3 Deg 0.91 µg/m3
2022-09-29 22:00 2.5 µg/m3 0.03 µg/m3 74.99 µg/m3 26.45 µg/m3 5.98 µg/m3 24.65 °C 76.2 % 1,003.48 mbar 3.6 m/s 168.87 Deg 0.91 µg/m3
2022-09-29 21:00 8.25 µg/m3 0.05 µg/m3 70.52 µg/m3 17.39 µg/m3 5.94 µg/m3 24.6 °C 74.1 % 1,003.46 mbar 2.3 m/s 172.78 Deg 0.99 µg/m3
2022-09-29 20:00 12.98 µg/m3 0.03 µg/m3 67.65 µg/m3 14.6 µg/m3 4.78 µg/m3 24.56 °C 73.63 % 1,003.12 mbar 2.08 m/s 186.3 Deg 1.11 µg/m3
2022-09-29 19:00 6.79 µg/m3 0.06 µg/m3 74.1 µg/m3 12.51 µg/m3 4.59 µg/m3 24.73 °C 71.49 % 1,002.79 mbar 1.9 m/s 203.82 Deg 1.01 µg/m3
2022-09-29 18:00 4.01 µg/m3 0.07 µg/m3 77.77 µg/m3 12.39 µg/m3 6.3 µg/m3 25.26 °C 68.18 % 1,002.45 mbar 2.64 m/s 210.82 Deg 1.05 µg/m3
2022-09-29 17:00 3.38 µg/m3 0.08 µg/m3 76.65 µg/m3 13.04 µg/m3 6.07 µg/m3 25.92 °C 63.02 % 1,002.24 mbar 3.94 m/s 203.08 Deg 1.22 µg/m3
2022-09-29 16:00 4.09 µg/m3 0.11 µg/m3 74.3 µg/m3 19.06 µg/m3 7.75 µg/m3 26.22 °C 63.28 % 1,002.13 mbar 4.57 m/s 198.57 Deg 1.52 µg/m3
2022-09-29 15:00 3.73 µg/m3 0.14 µg/m3 76.51 µg/m3 32.5 µg/m3 11.83 µg/m3 26.48 °C 62.82 % 1,002.44 mbar 4.68 m/s 191.37 Deg 1.56 µg/m3
2022-09-29 14:00 3.42 µg/m3 0.17 µg/m3 76.15 µg/m3 34.35 µg/m3 18.66 µg/m3 26.48 °C 63.29 % 1,002.68 mbar 5.1 m/s 203.85 Deg 1.63 µg/m3
2022-09-29 13:00 4.38 µg/m3 0.22 µg/m3 73.68 µg/m3 54.56 µg/m3 26.5 µg/m3 26.47 °C 62.54 % 1,002.97 mbar 4.24 m/s 204.97 Deg 2.17 µg/m3
2022-09-29 12:00 5.53 µg/m3 0.23 µg/m3 68.01 µg/m3 70.04 µg/m3 48.96 µg/m3 26.32 °C 63.27 % 1,003.42 mbar 4.38 m/s 205.5 Deg 2.66 µg/m3
2022-09-29 11:00 6 µg/m3 0.21 µg/m3 61.89 µg/m3 84.52 µg/m3 52.68 µg/m3 26.19 °C 63.14 % 1,003.67 mbar 3.85 m/s 210.97 Deg 3.13 µg/m3
2022-09-29 10:00 27.45 µg/m3 0.23 µg/m3 62.65 µg/m3 34.91 µg/m3 7.2 µg/m3 25.77 °C 65.04 % 1,003.65 mbar 3.72 m/s 220.87 Deg 14.7 µg/m3
2022-09-29 09:00 10.06 µg/m3 0.04 µg/m3 74.65 µg/m3 20.96 µg/m3 7.35 µg/m3 25.36 °C 67.9 % 1,003.46 mbar 3.05 m/s 227.47 Deg 2.59 µg/m3
2022-09-29 08:00 21.32 µg/m3 0.06 µg/m3 59.58 µg/m3 31.85 µg/m3 9.98 µg/m3 24.49 °C 71.96 % 1,003.48 mbar 1.9 m/s 233.43 Deg 4.72 µg/m3
2022-09-29 07:00 36.16 µg/m3 0.06 µg/m3 42.85 µg/m3 21.07 µg/m3 6.37 µg/m3 22.82 °C 77.38 % 1,003.45 mbar 1.75 m/s 256 Deg 4.46 µg/m3
2022-09-29 06:00 38.32 µg/m3 0.08 µg/m3 40.15 µg/m3 14.99 µg/m3 6.89 µg/m3 22.54 °C 77.24 % 1,003.44 mbar 1.52 m/s 261.2 Deg 3.39 µg/m3
2022-09-29 05:00 13.07 µg/m3 0.03 µg/m3 59.58 µg/m3 15.81 µg/m3 6.7 µg/m3 22.7 °C 76.38 % 1,003.43 mbar 1.54 m/s 275.62 Deg 1.16 µg/m3
2022-09-29 04:00 6.99 µg/m3 0.13 µg/m3 62.14 µg/m3 20.55 µg/m3 6.61 µg/m3 22.39 °C 77.65 % 1,003.32 mbar 1.41 m/s 282 Deg 0.91 µg/m3
2022-09-29 03:00 10.17 µg/m3 0.07 µg/m3 52.61 µg/m3 16.05 µg/m3 6.93 µg/m3 21.98 °C 79.43 % 1,003.43 mbar 1.04 m/s 296.18 Deg 1 µg/m3
2022-09-29 02:00 9.28 µg/m3 0.03 µg/m3 57.36 µg/m3 19.69 µg/m3 7.36 µg/m3 22.25 °C 78.29 % 1,003.72 mbar 0.98 m/s 292.22 Deg 0.9 µg/m3
2022-09-29 01:00 7.23 µg/m3 0.07 µg/m3 63.41 µg/m3 24.62 µg/m3 8.45 µg/m3 22.65 °C 76.28 % 1,003.88 mbar 1.04 m/s 280.25 Deg 0.83 µg/m3
2022-09-29 00:00 10.31 µg/m3 0.02 µg/m3 58.43 µg/m3 17.69 µg/m3 12.05 µg/m3 22.63 °C 75.82 % 1,004.31 mbar 1.2 m/s 281.8 Deg 0.91 µg/m3
2022-09-28 23:00 17.36 µg/m3 0.04 µg/m3 50.77 µg/m3 22.31 µg/m3 6.15 µg/m3 22.8 °C 73.41 % 1,004.21 mbar 0.94 m/s 284.15 Deg 1.1 µg/m3
2022-09-28 22:00 24.31 µg/m3 0.06 µg/m3 47.06 µg/m3 32.92 µg/m3 7.63 µg/m3 22.82 °C 71.73 % 1,004.37 mbar 0.87 m/s 291.7 Deg 1.22 µg/m3
2022-09-28 21:00 24.53 µg/m3 0.05 µg/m3 48.54 µg/m3 30.19 µg/m3 5.66 µg/m3 22.95 °C 71.73 % 1,004.15 mbar 0.85 m/s 276.03 Deg 1.31 µg/m3
2022-09-28 20:00 20.9 µg/m3 0.06 µg/m3 56.8 µg/m3 21.43 µg/m3 6.77 µg/m3 23.16 °C 70.64 % 1,003.83 mbar 1.11 m/s 287.18 Deg 1.25 µg/m3
2022-09-28 19:00 22.36 µg/m3 0.06 µg/m3 64.21 µg/m3 17.41 µg/m3 5.3 µg/m3 23.68 °C 68.01 % 1,003.46 mbar 1.53 m/s 305.18 Deg 1.94 µg/m3
2022-09-28 18:00 17.37 µg/m3 0.02 µg/m3 68.4 µg/m3 24.85 µg/m3 5.09 µg/m3 24.29 °C 66.15 % 1,003.25 mbar 2.49 m/s 317.77 Deg 3.02 µg/m3
2022-09-28 17:00 11.43 µg/m3 0.02 µg/m3 76.63 µg/m3 18.96 µg/m3 4.12 µg/m3 25.19 °C 63.16 % 1,003.16 mbar 2.74 m/s 319.05 Deg 2.31 µg/m3
2022-09-28 16:00 13.61 µg/m3 0.01 µg/m3 76.09 µg/m3 18.89 µg/m3 4.42 µg/m3 25.71 °C 61.77 % 1,003.03 mbar 3.28 m/s 310.72 Deg 3.14 µg/m3
2022-09-28 15:00 13.52 µg/m3 0.03 µg/m3 73.61 µg/m3 20.21 µg/m3 4.87 µg/m3 25.89 °C 64.81 % 1,003.02 mbar 3.04 m/s 309.35 Deg 3.83 µg/m3
2022-09-28 14:00 9.3 µg/m3 0.02 µg/m3 79.66 µg/m3 10.74 µg/m3 5.99 µg/m3 26.05 °C 61.42 % 1,003.21 mbar 3.84 m/s 279.85 Deg 2.42 µg/m3
2022-09-28 13:00 8.09 µg/m3 0.02 µg/m3 82.56 µg/m3 9.97 µg/m3 7.04 µg/m3 26.24 °C 57.73 % 1,003.56 mbar 4 m/s 277.75 Deg 2.24 µg/m3
2022-09-28 12:00 8.67 µg/m3 0.04 µg/m3 82.72 µg/m3 15.46 µg/m3 6.7 µg/m3 26.03 °C 57.99 % 1,003.84 mbar 3.63 m/s 279.72 Deg 2.34 µg/m3
2022-09-28 11:00 8.9 µg/m3 0.09 µg/m3 82.83 µg/m3 23.02 µg/m3 9.44 µg/m3 25.88 °C 61.38 % 1,003.80 mbar 3.71 m/s 282.57 Deg 2.07 µg/m3
2022-09-28 10:00 0 µg/m3 0 µg/m3 0 µg/m3 30.44 µg/m3 11.98 µg/m3 25.56 °C 64.52 % 1,003.74 mbar 3.34 m/s 272.35 Deg 0 µg/m3
2022-09-28 09:00 0 µg/m3 0 µg/m3 0 µg/m3 36.29 µg/m3 9.9 µg/m3 25.13 °C 64.63 % 1,003.90 mbar 2.56 m/s 289.77 Deg 0 µg/m3
2022-09-28 08:00 0 µg/m3 0 µg/m3 0 µg/m3 43.79 µg/m3 9.79 µg/m3 24.12 °C 71.79 % 1,003.96 mbar 1.78 m/s 293.58 Deg 0 µg/m3
2022-09-28 07:00 0 µg/m3 0 µg/m3 0 µg/m3 23.17 µg/m3 8.58 µg/m3 22.72 °C 77.93 % 1,003.80 mbar 1.51 m/s 285.67 Deg 0 µg/m3
2022-09-28 06:00 56.48 µg/m3 0.1 µg/m3 23.51 µg/m3 7.68 µg/m3 4.58 µg/m3 21.85 °C 80.02 % 1,003.60 mbar 1.16 m/s 280.25 Deg 9.94 µg/m3
2022-09-28 05:00 24.14 µg/m3 0.05 µg/m3 44.27 µg/m3 6.76 µg/m3 5.71 µg/m3 21.6 °C 82.25 % 1,003.49 mbar 1.26 m/s 301.47 Deg 1.63 µg/m3
2022-09-28 04:00 9.5 µg/m3 0.17 µg/m3 59.11 µg/m3 9.29 µg/m3 5.38 µg/m3 21.54 °C 81.84 % 1,003.33 mbar 1.01 m/s 308.82 Deg 0.93 µg/m3
2022-09-28 03:00 9.81 µg/m3 0.06 µg/m3 59.12 µg/m3 11.71 µg/m3 5.1 µg/m3 21.78 °C 79.42 % 1,003.60 mbar 1.14 m/s 301.7 Deg 1.12 µg/m3
2022-09-28 02:00 7.48 µg/m3 0.06 µg/m3 60.56 µg/m3 15.5 µg/m3 6.14 µg/m3 22.14 °C 77.82 % 1,004.20 mbar 1.22 m/s 289.7 Deg 0.85 µg/m3
2022-09-28 01:00 9.34 µg/m3 -0.01 µg/m3 59.23 µg/m3 20.48 µg/m3 5.39 µg/m3 22.5 °C 78.12 % 1,004.60 mbar 1.01 m/s 288.32 Deg 0.87 µg/m3
2022-09-28 00:00 12.37 µg/m3 0.04 µg/m3 59.01 µg/m3 15.12 µg/m3 5 µg/m3 22.89 °C 78.94 % 1,004.63 mbar 1.02 m/s 307.48 Deg 0.91 µg/m3
2022-09-27 23:00 15.36 µg/m3 0.04 µg/m3 57.17 µg/m3 15.42 µg/m3 5.92 µg/m3 23.11 °C 78.7 % 1,004.83 mbar 0.74 m/s 306.67 Deg 1.03 µg/m3
2022-09-27 22:00 14.51 µg/m3 0.02 µg/m3 64.67 µg/m3 18.08 µg/m3 5.77 µg/m3 23.55 °C 77.71 % 1,004.55 mbar 1.27 m/s 301.68 Deg 1.04 µg/m3
2022-09-27 21:00 15.19 µg/m3 0.04 µg/m3 67.37 µg/m3 23.65 µg/m3 6.93 µg/m3 23.85 °C 81.29 % 1,003.98 mbar 2.03 m/s 335.12 Deg 1.73 µg/m3
2022-09-27 20:00 21.48 µg/m3 0.04 µg/m3 60.37 µg/m3 29.11 µg/m3 9.31 µg/m3 23.92 °C 82.71 % 1,003.49 mbar 1.54 m/s 326.35 Deg 1.57 µg/m3
2022-09-27 19:00 23.83 µg/m3 0.03 µg/m3 62.64 µg/m3 25.86 µg/m3 7.17 µg/m3 24.25 °C 80.81 % 1,002.96 mbar 1.72 m/s 315.9 Deg 2.34 µg/m3
2022-09-27 18:00 19.4 µg/m3 0.01 µg/m3 68.54 µg/m3 18.66 µg/m3 7.26 µg/m3 24.82 °C 79.75 % 1,002.59 mbar 2.06 m/s 317.62 Deg 2.59 µg/m3

It is to be noted that the data is provisional and subject to quality assurance procedures. For validated data kindly refer your request to contact.air@era.org.mt